Pagrindinis puslapis
METAR-TAF:

METAR-TAF

Oro uostai :

Miyako-jima, Japonija

platuma: 24-47N, ilguma: 125-17E, Aukštis: 40 m

Dabartinis oras

Ataskaita buvo paskelbta 1 valandą ir 19 minutes, ne 03:00 UTC
Vėjas 5 kt iš Šiaurės/Šiaurės Rytų, svyruoja nuo Šiaurės ir Rytų/Šiaurės Rytų
Temperatūra 21°C
Drėgmė 69%
Slėgis 1020 hPa
Matomumas 10 km arba daugiau
Mažai debesys ne aukštis 3000 ft
Su prošvaistėmis ne aukštis 3500 ft
Su prošvaistėmis ne aukštis 4500 ft

METAR: ROMY 020300Z 02005KT 350V060 9999 FEW030 BKN035 BKN045 21/15 Q1020

Laikas: 13:19 (04:19 UTC)


TAF: trūkstamas

Orai ataskaitas ir orų prognozės (METAR, TAF).

turimą stotys yra geltonos ir raudonos taškus žemėlapyje.

Perkelti pele per norėdami pamatyti stoties vardą.

Tada spustelėkite, norėdami matyti oro stebėjimo ir prognozės.

Norėdami pakeisti žemėlapį: spustelėkite ant žalios mygtukų su juodo kryžiaus žemyn,; žalią mygtuką su brūkšneliu, jei norite nutolinti; arba žalių rodyklių gretimoms žemėlapius.


METAR-TAF: